ADDS TAF Board (Experimental) INFO Settings
IDs: Format: Expanded Condensed

KSLC - Salt Lake City Intl, UT, US

Issued at 1734 UTC 03 May 2016
Updated at: 1817 UTC 03 May 2016
Time1754Z 03/19Z 03/20Z 03/21Z 03/22Z 03/23Z 04/00Z 04/01Z 04/02Z 04/03Z 04/04Z 04/05Z 04/06Z 04/07Z
Type OBS PRVL PRVL PRVL PRVL PRVL PRVL PRVL PRVL PRVL PRVL PRVL PRVL PRVL
VIS 10 >6 >6 >6 >6 >6 >6 >6 >6 >6 >6 >6 >6 >6
CIG -- -- -- -- -- -- -- -- -- -- -- -- -- --
Cover FEW SKC SKC SKC SKC SKC SKC SKC SKC SKC SKC SKC SKC SKC
FltCat VFR VFR VFR VFR VFR VFR VFR VFR VFR VFR VFR VFR VFR VFR
WX -- -- -- -- -- -- -- -- -- -- -- -- -- --
WDir 310 330 330 330 330 330 330 330 330 330 150 150 150 150
WSpd 6 8 8 8 8 8 8 8 8 8 6 6 6 6
WGst -- -- -- -- -- -- -- -- -- -- -- -- -- --
R14/32
XWnd -2 -0 -0 -0 -0 -0 -0 -0 -0 -0 0 0 0 0
HWnd -6 -8 -8 -8 -8 -8 -8 -8 -8 -8 6 6 6 6
R16/34
XWnd -4 -3 -3 -3 -3 -3 -3 -3 -3 -3 3 3 3 3
HWnd -4 -7 -7 -7 -7 -7 -7 -7 -7 -7 5 5 5 5
R17/35
XWnd -5 -4 -4 -4 -4 -4 -4 -4 -4 -4 3 3 3 3
HWnd -4 -7 -7 -7 -7 -7 -7 -7 -7 -7 5 5 5 5
RHB/18
XWnd 5 4 4 4 4 4 4 4 4 4 -3 -3 -3 -3
HWnd 4 7 7 7 7 7 7 7 7 7 -5 -5 -5 -5

NOTE: TEMPO conditions in [brackets]. Keep in mind TEMPO conditions might be better (lower impact) than prevailing conditions.

Raw TAF
KSLC 031734Z 0318/0424 33008KT P6SM SKC
  FM040400 15006KT P6SM SKC
  FM041900 31010KT P6SM SCT150


Raw METAR
KSLC 031754Z 31006KT 10SM FEW090 FEW250 19/01 A3024 RMK AO2 SLP207 T01940011 10194 20083 58002
KSLC 031654Z VRB05KT 10SM FEW006 FEW080 FEW250 18/00 A3024 RMK AO2 SLP208 FU FEW006 FU OHD T01830000
KSLC 031651Z VRB03KT 10SM FEW006 FEW080 FEW250 18/M01 A3024 RMK AO2 FU FEW006 FU OHD
KSLC 031554Z 00000KT 10SM FEW250 16/01 A3024 RMK AO2 SLP210 T01610006

METAR Board
Radar Display
Forecast Discussion

TAF Board Legend

Potential Impact
Threat None Slight Moderate High
Visibility (sm) ≥5.1 5.1>X≥3 3>X≥1 <1
Ceiling (100 ft) ≥30.1 30.1>X≥10 10>X≥5 <5
Wind Speed (kt) <10 10≤X<20 20≤X<30 ≥30
Wind Gust (kt) <15 15≤X<25 25≤X<35 ≥35
Weather No Wx Reported VCTS,-TS,-FZRA,SN TS,FZRA +TS,+FZRA,+SN